KPDC

Prairie Du Chien Municipal Airport

Prairie Du Chien, Wisconsin, USA
METAR KPDC 231435Z AUTO 00000KT 10SM OVC065 17/15 A3019 RMK AO2 T01730151
Observed Flight Rules
May-23 @ 14:35 UTC (25 minutes ago) Visual Flight Rules
Visibility Clouds
10 miles
  • Overcast at 6,500' AGL
Temperatures Readings
Current 17°C / 63°F
Dewpoint 15°C / 59°F
Humidity 88%
Altimeter 30.19" Hg
Pressure 1022 hPa
Elevation 201
METAR KPDC 231435Z AUTO 00000KT 10SM OVC065 17/15 A3019 RMK AO2 T01730151
Observed Flight Rules
May-23 @ 14:35 UTC
(25 minutes ago)
VFR
Clouds
  • Overcast at 6,500' AGL
Temperature Dewpoint
17°C / 63°F 15°C / 59°F
Humidity Altimeter Pressure
88% 30.19" Hg 1022 hPa